Time;durP1;ratioP1;P1;durP2;ratioP2;P2;SDS_P1;SDS_P2;PMS_P1;PMS_P2;Temp;Humidity;BMP_temperature;BMP_pressure;BME280_temperature;BME280_humidity;BME280_pressure;Samples;Min_cycle;Max_cycle;Signal;HPM_P1;HPM_P2
2022/10/22 00:01:06;;;;;;;17.75;9.93;;;29.80;91.80;;;;;;5024367;28;20028;-61
2022/10/22 00:03:32;;;;;;;16.13;9.32;;;29.80;91.80;;;;;;5021507;28;20275;-64
2022/10/22 00:05:59;;;;;;;15.15;9.90;;;29.80;91.80;;;;;;5033589;28;20034;-59
2022/10/22 00:08:26;;;;;;;20.13;8.90;;;29.70;91.80;;;;;;5018965;28;20009;-62
2022/10/22 00:10:52;;;;;;;15.68;9.85;;;29.70;92.00;;;;;;5023626;28;20041;-62
2022/10/22 00:13:19;;;;;;;14.60;10.30;;;29.80;91.90;;;;;;5017198;28;20010;-62
2022/10/22 00:15:46;;;;;;;12.80;9.13;;;29.80;91.80;;;;;;5016154;28;20036;-60
2022/10/22 00:18:13;;;;;;;13.77;9.77;;;29.70;91.80;;;;;;5021257;28;20274;-62
2022/10/22 00:20:40;;;;;;;15.23;8.90;;;29.70;91.90;;;;;;5021905;28;20211;-62
2022/10/22 00:23:06;;;;;;;10.07;7.95;;;29.60;92.00;;;;;;5020532;28;20036;-63
2022/10/22 00:25:34;;;;;;;13.38;8.52;;;29.60;92.10;;;;;;5021290;28;20038;-64
2022/10/22 00:28:02;;;;;;;14.00;8.95;;;29.60;92.30;;;;;;5014525;28;20030;-61
2022/10/22 00:30:29;;;;;;;13.55;8.82;;;29.60;92.10;;;;;;5018573;28;20041;-64
2022/10/22 00:32:55;;;;;;;11.68;8.10;;;29.60;92.20;;;;;;5022111;28;20014;-63
2022/10/22 00:35:22;;;;;;;9.68;7.45;;;29.50;92.10;;;;;;5021483;28;20045;-62
2022/10/22 00:37:48;;;;;;;9.70;6.80;;;29.50;92.20;;;;;;5019858;28;20022;-62
2022/10/22 00:40:15;;;;;;;12.90;6.85;;;29.50;92.20;;;;;;5022823;28;20026;-63
2022/10/22 00:42:41;;;;;;;11.13;6.70;;;29.40;92.20;;;;;;5022923;28;20079;-65
2022/10/22 00:45:11;;;;;;;9.00;5.90;;;29.40;92.20;;;;;;5020994;28;20318;-63
2022/10/22 00:47:41;;;;;;;8.40;6.28;;;29.40;92.40;;;;;;5019965;28;20353;-60
2022/10/22 00:50:22;;;;;;;9.90;5.60;;;29.30;92.20;;;;;;5024065;28;20125;-54
2022/10/22 00:52:50;;;;;;;11.33;5.60;;;29.30;92.20;;;;;;5023674;28;20105;-55
2022/10/22 00:55:18;;;;;;;6.57;5.38;;;29.40;92.00;;;;;;5023435;28;20399;-58
2022/10/22 00:57:45;;;;;;;11.75;4.85;;;29.40;91.90;;;;;;5020235;28;20312;-56
2022/10/22 01:00:12;;;;;;;7.00;5.10;;;29.40;91.80;;;;;;5022626;28;20022;-60
2022/10/22 01:02:40;;;;;;;9.20;5.32;;;29.40;91.80;;;;;;5023095;28;20076;-58
2022/10/22 01:05:07;;;;;;;7.78;5.00;;;29.50;91.80;;;;;;5026418;28;20037;-61
2022/10/22 01:07:44;;;;;;;6.72;4.88;;;29.50;91.70;;;;;;5025884;28;20202;-61
2022/10/22 01:10:21;;;;;;;10.07;5.30;;;29.50;91.70;;;;;;5026744;28;20037;-56
2022/10/22 01:13:16;;;;;;;7.88;5.30;;;29.50;91.70;;;;;;5026963;28;20081;-58
2022/10/22 01:16:10;;;;;;;7.80;5.63;;;29.50;91.60;;;;;;5027315;28;20041;-55
2022/10/22 01:18:59;;;;;;;8.93;4.85;;;29.50;91.60;;;;;;5026834;28;20187;-58
2022/10/22 01:21:41;;;;;;;5.65;4.38;;;29.40;91.60;;;;;;5026470;28;20218;-57
2022/10/22 01:24:23;;;;;;;11.63;5.00;;;29.50;91.60;;;;;;5027013;28;20100;-57
2022/10/22 01:27:08;;;;;;;12.82;5.57;;;29.50;91.50;;;;;;5026744;28;20190;-51
2022/10/22 01:29:47;;;;;;;12.38;6.05;;;29.50;91.50;;;;;;5026815;28;20034;-59
2022/10/22 01:32:22;;;;;;;9.40;5.10;;;29.40;91.50;;;;;;5026874;28;20018;-59
2022/10/22 01:34:56;;;;;;;10.35;5.15;;;29.40;91.60;;;;;;5026852;28;20026;-57
2022/10/22 01:37:27;;;;;;;9.15;5.07;;;29.50;91.50;;;;;;5026417;28;20262;-56
2022/10/22 01:39:58;;;;;;;9.65;5.10;;;29.50;91.50;;;;;;5025060;28;20038;-57
2022/10/22 01:42:24;;;;;;;6.72;4.65;;;29.40;91.40;;;;;;5026054;28;20028;-55
2022/10/22 01:44:51;;;;;;;8.70;4.72;;;29.40;91.50;;;;;;5026563;28;20038;-52
2022/10/22 01:47:39;;;;;;;7.35;4.47;;;29.40;91.40;;;;;;5025970;28;20041;-52
2022/10/22 01:50:44;;;;;;;5.72;4.43;;;29.40;91.30;;;;;;5026477;28;20175;-54
2022/10/22 01:53:19;;;;;;;7.25;4.90;;;29.40;91.30;;;;;;5003468;28;20254;-53
2022/10/22 01:55:56;;;;;;;6.80;4.75;;;29.40;91.20;;;;;;5025896;28;20372;-57
2022/10/22 01:58:37;;;;;;;7.13;5.07;;;29.40;91.30;;;;;;5025759;28;20029;-55
2022/10/22 02:01:31;;;;;;;7.60;5.72;;;29.30;91.30;;;;;;5025988;28;20025;-57
2022/10/22 02:04:28;;;;;;;15.30;9.23;;;29.40;91.40;;;;;;5026229;28;20055;-56
2022/10/22 02:06:58;;;;;;;13.02;9.60;;;29.40;91.40;;;;;;5024879;28;20321;-55
2022/10/22 02:09:28;;;;;;;19.13;13.13;;;29.30;91.40;;;;;;5026036;28;20084;-57
2022/10/22 02:11:57;;;;;;;19.63;10.95;;;29.30;91.30;;;;;;5025725;28;20033;-57
2022/10/22 02:14:27;;;;;;;15.65;10.27;;;29.30;91.30;;;;;;5024915;28;20029;-57
2022/10/22 02:16:54;;;;;;;14.77;10.00;;;29.30;91.30;;;;;;5025877;28;20032;-57
2022/10/22 02:19:39;;;;;;;21.15;11.63;;;29.30;91.30;;;;;;5025385;28;20245;-62
2022/10/22 02:22:06;;;;;;;28.52;14.13;;;29.20;91.30;;;;;;5024645;28;20083;-60
2022/10/22 02:24:33;;;;;;;18.20;10.73;;;29.30;91.40;;;;;;5025053;28;20033;-58
2022/10/22 02:27:12;;;;;;;16.33;9.85;;;29.30;91.40;;;;;;5025222;28;20041;-55
2022/10/22 02:29:50;;;;;;;12.25;7.78;;;29.20;91.30;;;;;;5025662;28;20030;-55
2022/10/22 02:32:20;;;;;;;13.20;6.82;;;29.20;91.40;;;;;;5025229;28;20034;-55
2022/10/22 02:34:48;;;;;;;12.00;6.50;;;29.20;91.40;;;;;;5025518;28;20022;-54
2022/10/22 02:37:16;;;;;;;8.93;6.18;;;29.20;91.40;;;;;;5025108;28;20026;-55
2022/10/22 02:39:44;;;;;;;10.05;5.68;;;29.10;91.40;;;;;;5025184;28;20033;-59
2022/10/22 02:42:11;;;;;;;10.93;5.70;;;29.10;91.40;;;;;;5025148;28;20037;-57
2022/10/22 02:44:38;;;;;;;13.50;6.20;;;29.10;91.50;;;;;;5025433;28;20034;-53
2022/10/22 02:47:05;;;;;;;9.98;6.18;;;29.10;91.50;;;;;;5025009;28;20022;-60
2022/10/22 02:49:31;;;;;;;8.23;6.32;;;29.10;91.50;;;;;;5025192;28;20034;-56
2022/10/22 02:51:58;;;;;;;8.52;5.75;;;29.10;91.60;;;;;;5024839;28;20239;-56
2022/10/22 02:54:25;;;;;;;7.35;5.78;;;29.10;91.60;;;;;;5025255;28;20101;-57
2022/10/22 02:56:51;;;;;;;9.70;6.40;;;29.10;91.60;;;;;;5025223;28;20025;-60
2022/10/22 02:59:18;;;;;;;9.25;6.20;;;29.10;91.60;;;;;;5024960;28;20022;-57
2022/10/22 03:01:44;;;;;;;12.68;6.30;;;29.10;91.60;;;;;;5025375;28;20030;-61
2022/10/22 03:04:11;;;;;;;9.20;5.95;;;29.10;91.60;;;;;;5024911;28;20068;-60
2022/10/22 03:06:37;;;;;;;11.70;5.75;;;29.10;91.60;;;;;;5024562;28;20113;-60
2022/10/22 03:09:04;;;;;;;8.80;5.88;;;29.10;91.60;;;;;;5024947;28;20101;-55
2022/10/22 03:11:30;;;;;;;9.43;5.88;;;29.00;91.50;;;;;;5024775;28;20025;-59
2022/10/22 03:13:57;;;;;;;7.85;6.20;;;29.10;91.50;;;;;;5024704;28;20306;-54
2022/10/22 03:16:24;;;;;;;11.18;6.40;;;29.00;91.40;;;;;;5024649;28;20071;-58
2022/10/22 03:18:50;;;;;;;8.95;6.40;;;29.10;91.50;;;;;;5024676;28;20040;-58
2022/10/22 03:21:29;;;;;;;7.60;6.32;;;29.00;91.50;;;;;;5024435;28;20061;-54
2022/10/22 03:23:57;;;;;;;8.10;6.15;;;29.00;91.40;;;;;;5024684;28;20372;-57
2022/10/22 03:26:24;;;;;;;10.65;5.60;;;29.00;91.50;;;;;;5024159;28;20325;-56
2022/10/22 03:28:51;;;;;;;9.68;6.28;;;29.00;91.60;;;;;;5024387;28;20101;-61
2022/10/22 03:31:17;;;;;;;7.68;6.38;;;29.00;91.50;;;;;;5024369;28;20030;-61
2022/10/22 03:33:44;;;;;;;7.68;5.80;;;29.00;91.50;;;;;;5024409;28;20037;-60
2022/10/22 03:36:10;;;;;;;8.60;6.25;;;29.00;91.50;;;;;;5024165;28;20029;-55
2022/10/22 03:38:39;;;;;;;9.38;5.90;;;29.00;91.60;;;;;;5024208;28;20036;-54
2022/10/22 03:41:06;;;;;;;10.02;6.00;;;29.00;91.70;;;;;;5024329;28;20025;-54
2022/10/22 03:43:36;;;;;;;9.07;6.45;;;29.00;91.60;;;;;;5024068;28;20229;-54
2022/10/22 03:46:03;;;;;;;9.18;5.93;;;29.00;91.60;;;;;;5024281;28;20328;-57
2022/10/22 03:48:29;;;;;;;8.88;6.40;;;29.00;91.50;;;;;;5024128;28;20034;-61
2022/10/22 03:50:57;;;;;;;11.77;7.05;;;29.00;91.50;;;;;;5023949;28;20022;-59
2022/10/22 03:53:23;;;;;;;11.98;6.95;;;29.00;91.50;;;;;;5024003;28;20085;-59
2022/10/22 03:55:50;;;;;;;10.10;6.88;;;29.00;91.50;;;;;;5024132;28;20042;-56
2022/10/22 03:58:16;;;;;;;7.90;6.28;;;29.00;91.60;;;;;;5023921;28;20326;-54
2022/10/22 04:00:43;;;;;;;9.95;6.15;;;28.90;91.60;;;;;;5024525;28;20042;-64
2022/10/22 04:03:10;;;;;;;8.80;6.35;;;28.90;91.60;;;;;;5024080;28;20054;-59
2022/10/22 04:05:36;;;;;;;10.48;5.88;;;28.90;91.60;;;;;;5024232;28;20069;-61
2022/10/22 04:08:03;;;;;;;7.22;5.78;;;28.90;91.70;;;;;;5024001;28;20028;-61
2022/10/22 04:10:29;;;;;;;9.75;5.85;;;28.90;91.60;;;;;;5023831;28;20210;-55
2022/10/22 04:12:56;;;;;;;6.68;5.57;;;28.90;91.60;;;;;;5023810;28;20260;-57
2022/10/22 04:15:25;;;;;;;10.50;5.68;;;28.90;91.50;;;;;;5024207;28;20034;-56
2022/10/22 04:17:52;;;;;;;7.88;5.70;;;28.90;91.50;;;;;;5023872;28;20018;-55
2022/10/22 04:20:18;;;;;;;7.40;5.75;;;28.90;91.50;;;;;;5024117;28;20302;-60
2022/10/22 04:22:45;;;;;;;9.18;5.85;;;28.90;91.50;;;;;;5024044;28;20014;-59
2022/10/22 04:25:11;;;;;;;7.45;6.10;;;28.90;91.50;;;;;;5024291;28;20052;-60
2022/10/22 04:27:38;;;;;;;9.75;6.15;;;28.90;91.50;;;;;;5023441;28;20057;-58
2022/10/22 04:30:05;;;;;;;11.25;6.20;;;28.90;91.50;;;;;;5024125;28;20046;-60
2022/10/22 04:32:32;;;;;;;7.72;6.00;;;28.90;91.80;;;;;;5023707;28;20097;-61
2022/10/22 04:34:58;;;;;;;10.95;6.70;;;28.80;91.50;;;;;;5023977;28;20030;-61
2022/10/22 04:37:25;;;;;;;12.15;7.03;;;28.80;91.50;;;;;;5024063;28;20272;-62
2022/10/22 04:39:51;;;;;;;8.38;6.85;;;28.80;91.50;;;;;;5027930;28;20307;-62
2022/10/22 04:42:18;;;;;;;7.72;6.25;;;28.80;91.50;;;;;;5027448;28;20033;-57
2022/10/22 04:44:45;;;;;;;6.78;6.07;;;28.80;91.50;;;;;;5027662;28;20128;-60
2022/10/22 04:47:11;;;;;;;14.02;7.05;;;28.80;91.50;;;;;;5027252;28;20136;-59
2022/10/22 04:49:39;;;;;;;7.95;6.45;;;28.80;91.60;;;;;;5027454;28;20061;-60
2022/10/22 04:52:07;;;;;;;9.40;6.72;;;28.80;91.60;;;;;;5027224;28;20038;-62
2022/10/22 04:54:33;;;;;;;8.05;6.70;;;28.80;91.60;;;;;;5027137;28;20053;-62
2022/10/22 04:57:00;;;;;;;7.45;6.35;;;28.80;91.60;;;;;;5027195;28;20029;-55
2022/10/22 04:59:26;;;;;;;7.40;6.10;;;28.80;91.50;;;;;;5027250;28;20317;-57
2022/10/22 05:02:02;;;;;;;8.45;5.95;;;28.70;91.50;;;;;;5027389;28;20040;-56
2022/10/22 05:04:29;;;;;;;6.55;5.95;;;28.70;91.50;;;;;;5027314;28;20022;-59
2022/10/22 05:06:56;;;;;;;7.88;5.50;;;28.70;91.40;;;;;;5027304;28;20039;-60
2022/10/22 05:09:22;;;;;;;9.52;6.00;;;28.70;91.40;;;;;;5027161;28;20021;-59
2022/10/22 05:11:51;;;;;;;7.78;5.82;;;28.70;91.40;;;;;;5026918;28;20088;-54
2022/10/22 05:14:21;;;;;;;7.22;5.82;;;28.70;91.40;;;;;;5026880;28;20046;-56
2022/10/22 05:16:47;;;;;;;7.35;5.20;;;28.70;91.30;;;;;;5026767;28;20037;-54
2022/10/22 05:19:22;;;;;;;9.52;5.65;;;28.70;91.40;;;;;;5026721;28;20038;-58
2022/10/22 05:21:50;;;;;;;6.63;5.38;;;28.70;91.40;;;;;;5026860;28;20029;-59
2022/10/22 05:24:17;;;;;;;7.35;5.65;;;28.70;91.40;;;;;;5026879;28;20042;-55
2022/10/22 05:26:43;;;;;;;6.88;5.20;;;28.70;91.50;;;;;;5026259;28;20097;-54
2022/10/22 05:29:10;;;;;;;9.00;5.35;;;28.70;91.50;;;;;;5026675;28;20053;-54
2022/10/22 05:31:37;;;;;;;8.32;5.72;;;28.70;91.50;;;;;;5026545;28;20030;-54
2022/10/22 05:34:04;;;;;;;7.80;5.07;;;28.70;91.40;;;;;;5026332;28;20021;-54
2022/10/22 05:36:30;;;;;;;5.93;4.68;;;28.70;91.30;;;;;;5025224;28;20230;-53
2022/10/22 05:38:57;;;;;;;8.80;4.60;;;28.70;91.30;;;;;;5026389;28;20022;-55
2022/10/22 05:41:25;;;;;;;11.07;4.70;;;28.60;91.20;;;;;;5026161;28;20270;-53
2022/10/22 05:43:55;;;;;;;9.30;4.85;;;28.70;91.20;;;;;;5024605;28;20069;-52
2022/10/22 05:46:23;;;;;;;8.45;4.20;;;28.60;91.10;;;;;;5031777;28;20029;-53
2022/10/22 05:48:55;;;;;;;6.70;4.00;;;28.60;91.00;;;;;;5045561;28;20092;-54
2022/10/22 05:51:23;;;;;;;6.05;3.95;;;28.70;90.90;;;;;;5045474;28;20337;-55
2022/10/22 05:53:59;;;;;;;5.70;3.83;;;28.70;90.80;;;;;;5045738;28;20037;-60
2022/10/22 05:56:28;;;;;;;7.72;3.85;;;28.70;90.80;;;;;;5045924;28;20036;-53
2022/10/22 05:58:55;;;;;;;4.93;3.60;;;28.70;90.70;;;;;;5045998;28;20063;-53
2022/10/22 06:01:27;;;;;;;4.78;3.33;;;28.70;90.60;;;;;;5045745;28;20374;-52
2022/10/22 06:03:55;;;;;;;;;;;28.60;90.50;;;;;;5046233;28;20080;-52
2022/10/22 06:06:37;;;;;;;5.05;3.65;;;28.70;90.40;;;;;;5045633;28;19905;-53
2022/10/22 06:09:26;;;;;;;7.03;3.78;;;28.60;90.50;;;;;;5045765;28;20033;-55
2022/10/22 06:11:54;;;;;;;7.53;3.70;;;28.60;90.40;;;;;;5035835;28;20037;-54
2022/10/22 06:14:21;;;;;;;6.57;3.97;;;28.60;90.40;;;;;;5025280;28;20042;-51
2022/10/22 06:16:48;;;;;;;7.72;4.00;;;28.60;90.40;;;;;;5025710;28;20322;-51
2022/10/22 06:19:17;;;;;;;10.65;3.90;;;28.60;90.30;;;;;;5025603;28;20086;-54
2022/10/22 06:21:44;;;;;;;5.72;3.30;;;28.60;90.30;;;;;;5025336;28;20850;-54
2022/10/22 06:24:11;;;;;;;6.32;3.33;;;28.50;90.20;;;;;;5025757;28;20033;-54
2022/10/22 06:26:38;;;;;;;5.20;3.40;;;28.60;90.30;;;;;;5023355;28;20045;-53
2022/10/22 06:29:05;;;;;;;4.13;3.10;;;28.60;90.30;;;;;;5025180;28;20018;-53
2022/10/22 06:31:35;;;;;;;5.43;3.65;;;28.60;90.30;;;;;;5025370;28;20030;-52
2022/10/22 06:34:13;;;;;;;7.65;3.70;;;28.50;90.30;;;;;;5025437;28;20025;-51
2022/10/22 06:36:42;;;;;;;5.00;3.22;;;28.50;90.30;;;;;;5025187;28;20014;-52
2022/10/22 06:39:15;;;;;;;3.55;3.25;;;28.50;90.30;;;;;;5025065;28;20073;-53
2022/10/22 06:41:42;;;;;;;6.63;3.63;;;28.50;90.30;;;;;;5024681;28;20033;-53
2022/10/22 06:44:14;;;;;;;6.50;3.38;;;28.50;90.30;;;;;;5025430;28;20041;-55
2022/10/22 06:46:41;;;;;;;8.73;3.40;;;28.50;90.40;;;;;;5024760;28;20041;-55
2022/10/22 06:49:14;;;;;;;5.95;3.83;;;28.50;90.50;;;;;;5025200;28;20069;-54
2022/10/22 06:51:44;;;;;;;6.55;3.65;;;28.50;90.50;;;;;;5024866;28;20024;-51
2022/10/22 06:54:11;;;;;;;5.90;3.50;;;28.50;90.80;;;;;;5025025;28;20029;-52
2022/10/22 06:56:41;;;;;;;10.40;3.92;;;28.40;90.70;;;;;;5024812;28;20026;-55
2022/10/22 06:59:07;;;;;;;6.43;3.35;;;28.40;90.60;;;;;;5023821;28;20038;-54
2022/10/22 07:01:35;;;;;;;6.25;3.72;;;28.40;90.70;;;;;;5024005;28;20034;-59
2022/10/22 07:04:02;;;;;;;6.72;3.75;;;28.40;90.70;;;;;;5040129;28;20025;-53
2022/10/22 07:06:29;;;;;;;5.95;3.78;;;28.40;90.70;;;;;;5024233;28;20037;-50
2022/10/22 07:08:57;;;;;;;5.78;3.55;;;28.40;90.90;;;;;;5024719;28;20052;-51
2022/10/22 07:11:27;;;;;;;6.70;3.70;;;28.40;90.90;;;;;;5024649;28;20025;-54
2022/10/22 07:13:57;;;;;;;6.32;3.95;;;28.40;90.80;;;;;;5024490;28;20358;-59
2022/10/22 07:16:24;;;;;;;6.75;3.70;;;28.40;90.80;;;;;;5024576;28;20037;-53
2022/10/22 07:18:50;;;;;;;5.78;4.00;;;28.40;90.90;;;;;;5024492;28;20042;-56
2022/10/22 07:21:21;;;;;;;10.30;4.10;;;28.40;90.80;;;;;;5024548;28;20018;-56
2022/10/22 07:23:48;;;;;;;6.03;4.00;;;28.40;90.90;;;;;;5024292;28;20034;-53
2022/10/22 07:26:19;;;;;;;6.20;4.05;;;28.40;90.90;;;;;;5024193;28;20034;-52
2022/10/22 07:28:46;;;;;;;9.93;4.00;;;28.30;91.00;;;;;;5024243;28;20097;-53
2022/10/22 07:31:14;;;;;;;8.23;4.30;;;28.40;91.00;;;;;;5030465;28;20021;-52
2022/10/22 07:33:41;;;;;;;5.50;4.13;;;28.30;91.00;;;;;;5039620;28;20297;-55
2022/10/22 07:36:10;;;;;;;6.55;4.13;;;28.30;91.00;;;;;;5024185;28;20041;-54
2022/10/22 07:38:37;;;;;;;6.75;4.38;;;28.30;91.10;;;;;;5024227;28;20052;-49
2022/10/22 07:41:04;;;;;;;7.90;4.68;;;28.30;91.10;;;;;;5024148;28;20033;-57
2022/10/22 07:43:30;;;;;;;6.85;3.97;;;28.30;91.10;;;;;;5024008;28;20045;-58
2022/10/22 07:45:58;;;;;;;6.53;3.55;;;28.30;91.20;;;;;;5024271;28;20100;-53
2022/10/22 07:48:25;;;;;;;6.40;3.83;;;28.30;91.20;;;;;;5024022;28;20041;-53
2022/10/22 07:50:51;;;;;;;5.88;3.58;;;28.30;91.20;;;;;;5023997;28;20033;-58
2022/10/22 07:53:20;;;;;;;5.35;3.83;;;28.30;91.30;;;;;;5024044;28;20022;-58
2022/10/22 07:55:50;;;;;;;6.68;3.90;;;28.30;91.30;;;;;;5024071;28;20037;-60
2022/10/22 07:58:18;;;;;;;4.80;3.67;;;28.30;91.40;;;;;;5023929;28;20021;-50
2022/10/22 08:00:45;;;;;;;6.20;3.85;;;28.30;91.40;;;;;;5024005;28;20034;-53
2022/10/22 08:03:12;;;;;;;6.13;3.85;;;28.30;91.50;;;;;;5024010;28;20313;-53
2022/10/22 08:05:39;;;;;;;6.57;3.42;;;28.30;91.50;;;;;;5024367;28;20093;-51
2022/10/22 08:08:06;;;;;;;7.47;4.03;;;28.20;91.40;;;;;;5023972;28;20034;-53
2022/10/22 08:10:33;;;;;;;5.68;3.55;;;28.20;91.70;;;;;;5024347;28;20022;-52
2022/10/22 08:13:01;;;;;;;5.50;3.80;;;28.20;91.40;;;;;;5024954;28;20302;-53
2022/10/22 08:15:27;;;;;;;5.35;3.72;;;28.20;91.40;;;;;;5028370;28;20037;-58
2022/10/22 08:17:54;;;;;;;4.32;3.83;;;28.20;91.50;;;;;;5027955;28;20081;-51
2022/10/22 08:20:20;;;;;;;9.00;4.43;;;28.20;91.60;;;;;;5028130;28;20367;-53
2022/10/22 08:22:47;;;;;;;7.03;4.57;;;28.20;91.60;;;;;;5027868;28;20028;-60
2022/10/22 08:25:14;;;;;;;6.90;4.45;;;28.20;91.70;;;;;;5028100;28;20093;-62
2022/10/22 08:27:41;;;;;;;7.15;4.28;;;28.20;91.70;;;;;;5027385;28;20046;-59
2022/10/22 08:30:08;;;;;;;6.28;4.07;;;28.20;91.80;;;;;;5028073;28;20022;-61
2022/10/22 08:32:34;;;;;;;5.70;4.50;;;28.20;91.80;;;;;;5027695;28;20045;-61
2022/10/22 08:35:01;;;;;;;10.02;4.88;;;28.10;91.80;;;;;;5027681;28;20075;-61
2022/10/22 08:37:27;;;;;;;6.32;4.72;;;28.10;91.90;;;;;;5027560;28;20322;-61
2022/10/22 08:39:54;;;;;;;6.90;4.65;;;28.10;91.90;;;;;;5027848;28;20036;-61
2022/10/22 08:42:49;;;;;;;8.07;4.70;;;28.10;92.10;;;;;;5027314;28;20058;-54
2022/10/22 08:45:25;;;;;;;7.38;5.18;;;28.10;92.00;;;;;;5027449;28;20279;-59
2022/10/22 08:48:00;;;;;;;7.15;4.75;;;28.10;92.00;;;;;;5027383;28;20057;-55
2022/10/22 08:50:38;;;;;;;7.15;5.93;;;28.10;92.00;;;;;;5027799;28;20080;-48
2022/10/22 08:53:21;;;;;;;8.32;6.53;;;28.10;92.10;;;;;;5027172;28;20318;-54
2022/10/22 08:55:51;;;;;;;7.20;5.53;;;28.10;92.10;;;;;;5027211;28;20321;-54
2022/10/22 08:58:38;;;;;;;7.80;5.70;;;28.00;92.00;;;;;;5027010;28;20045;-60
2022/10/22 09:01:22;;;;;;;9.75;5.60;;;28.00;92.10;;;;;;5027064;28;20022;-60
2022/10/22 09:04:09;;;;;;;7.78;5.03;;;28.00;92.10;;;;;;5027043;28;20097;-56
2022/10/22 09:06:39;;;;;;;8.18;5.35;;;28.00;92.10;;;;;;5026830;28;20026;-53
2022/10/22 09:09:14;;;;;;;7.60;4.97;;;28.00;92.10;;;;;;5026825;28;20034;-55
2022/10/22 09:11:44;;;;;;;7.45;4.82;;;28.00;92.10;;;;;;5026926;28;20041;-54
2022/10/22 09:14:15;;;;;;;9.80;4.93;;;28.00;92.10;;;;;;5026987;28;20048;-56
2022/10/22 09:17:01;;;;;;;9.10;4.40;;;28.00;92.10;;;;;;5026895;28;20080;-58
2022/10/22 09:19:43;;;;;;;8.10;4.57;;;28.00;92.10;;;;;;5027124;28;20314;-53
2022/10/22 09:22:17;;;;;;;9.17;4.37;;;27.90;92.10;;;;;;5026677;28;20022;-53
2022/10/22 09:24:47;;;;;;;7.78;4.28;;;28.00;92.10;;;;;;5026691;28;20309;-57
2022/10/22 09:27:26;;;;;;;7.00;4.00;;;28.00;92.10;;;;;;5026352;28;20269;-53
2022/10/22 09:29:52;;;;;;;5.57;4.45;;;28.00;92.00;;;;;;5026764;28;20198;-55
2022/10/22 09:32:25;;;;;;;6.70;4.78;;;28.00;92.00;;;;;;5026571;28;20321;-55
2022/10/22 09:34:57;;;;;;;8.38;4.45;;;28.00;92.00;;;;;;5026764;28;20041;-55
2022/10/22 09:37:28;;;;;;;8.70;4.53;;;28.00;92.00;;;;;;5026345;28;20026;-52
2022/10/22 09:39:57;;;;;;;6.45;4.65;;;28.00;92.00;;;;;;5026833;28;20034;-53
2022/10/22 09:42:24;;;;;;;7.15;4.22;;;28.00;92.00;;;;;;5026184;28;20067;-52
2022/10/22 09:44:58;;;;;;;7.43;4.13;;;27.90;92.00;;;;;;5032688;28;20068;-53
2022/10/22 09:47:32;;;;;;;5.90;4.53;;;28.00;92.00;;;;;;5042123;28;20213;-58
2022/10/22 09:50:39;;;;;;;8.75;4.57;;;27.90;92.00;;;;;;5046164;28;20117;-58
2022/10/22 09:53:13;;;;;;;6.55;4.50;;;27.90;92.00;;;;;;5033053;28;20061;-55
2022/10/22 09:55:41;;;;;;;8.10;4.78;;;27.90;92.00;;;;;;5045761;28;20060;-53
2022/10/22 09:58:11;;;;;;;9.75;4.32;;;27.90;92.10;;;;;;5045752;28;20033;-52
2022/10/22 10:00:40;;;;;;;9.40;3.97;;;27.90;91.90;;;;;;5046310;28;20029;-55
2022/10/22 10:03:14;;;;;;;6.88;3.78;;;27.90;91.80;;;;;;5045827;28;20077;-52
2022/10/22 10:05:42;;;;;;;4.82;3.60;;;27.90;91.70;;;;;;5045982;28;20049;-53
2022/10/22 10:08:14;;;;;;;6.93;3.40;;;27.80;91.50;;;;;;5045538;28;20033;-52
2022/10/22 10:10:55;;;;;;;3.47;2.92;;;27.90;91.40;;;;;;5045957;28;20021;-54
2022/10/22 10:14:08;;;;;;;6.93;3.22;;;27.80;91.30;;;;;;5045575;28;20077;-57
2022/10/22 10:16:45;;;;;;;2.72;2.53;;;27.80;91.20;;;;;;4984845;28;20031;-53
2022/10/22 10:19:46;;;;;;;3.25;2.60;;;27.80;91.10;;;;;;5042908;28;20071;-53
2022/10/22 10:22:37;;;;;;;2.80;2.50;;;27.80;91.00;;;;;;4994511;28;20033;-55
2022/10/22 10:25:25;;;;;;;5.70;2.60;;;27.80;90.80;;;;;;5041168;28;20035;-53
2022/10/22 10:27:51;;;;;;;4.55;2.10;;;27.80;90.80;;;;;;5040378;28;20094;-55
2022/10/22 10:30:22;;;;;;;2.35;1.90;;;27.80;90.60;;;;;;5043789;28;20048;-52
2022/10/22 10:33:01;;;;;;;4.60;2.00;;;27.80;90.50;;;;;;5035318;28;20025;-54
2022/10/22 10:35:45;;;;;;;5.10;1.77;;;27.80;90.50;;;;;;5044870;28;20037;-52
2022/10/22 10:38:44;;;;;;;3.28;1.88;;;27.80;90.40;;;;;;5044929;28;20023;-57
2022/10/22 10:41:26;;;;;;;4.97;1.95;;;27.70;90.40;;;;;;5044729;28;20037;-55
2022/10/22 10:44:15;;;;;;;5.40;1.95;;;27.80;90.50;;;;;;5045049;28;20028;-52
2022/10/22 10:46:49;;;;;;;5.47;2.22;;;27.70;90.50;;;;;;5040910;28;20108;-56
2022/10/22 10:49:29;;;;;;;6.22;2.35;;;27.70;90.60;;;;;;5025440;28;20029;-52
2022/10/22 10:52:05;;;;;;;4.30;2.25;;;27.70;90.50;;;;;;5024728;28;20226;-60
2022/10/22 10:54:39;;;;;;;4.82;2.45;;;27.70;90.60;;;;;;5005606;28;20022;-50
2022/10/22 10:57:29;;;;;;;3.83;2.70;;;27.70;90.60;;;;;;5005237;28;20045;-55
2022/10/22 11:00:07;;;;;;;4.18;2.40;;;27.70;90.60;;;;;;5005269;28;20038;-52
2022/10/22 11:02:58;;;;;;;7.20;2.97;;;27.70;90.60;;;;;;5039560;28;20045;-52
2022/10/22 11:05:28;;;;;;;3.45;2.60;;;27.70;90.60;;;;;;5024663;28;20026;-58
2022/10/22 11:08:04;;;;;;;5.68;2.20;;;27.70;90.70;;;;;;5024576;28;20036;-60
2022/10/22 11:10:59;;;;;;;4.20;2.17;;;27.70;90.70;;;;;;5025129;28;20068;-61
2022/10/22 11:13:42;;;;;;;4.68;2.42;;;27.70;90.80;;;;;;5024171;28;20246;-52
2022/10/22 11:16:11;;;;;;;;;;;27.70;90.80;;;;;;5023801;28;20097;-56
2022/10/22 11:18:47;;;;;;;6.95;2.60;;;27.70;90.90;;;;;;5021580;28;19905;-51
2022/10/22 11:21:20;;;;;;;6.40;2.80;;;27.60;91.00;;;;;;5020545;28;20026;-55
2022/10/22 11:24:24;;;;;;;6.60;4.15;;;27.70;91.40;;;;;;5023562;28;20033;-54
2022/10/22 11:27:03;;;;;;;9.50;5.72;;;27.70;91.30;;;;;;5027217;28;20034;-54
2022/10/22 11:29:42;;;;;;;10.35;6.10;;;27.70;91.20;;;;;;5021884;28;20022;-49
2022/10/22 11:32:14;;;;;;;9.80;5.43;;;27.70;91.30;;;;;;5020563;28;20013;-56
2022/10/22 11:34:53;;;;;;;11.25;4.95;;;27.70;91.40;;;;;;5025263;28;20038;-55
2022/10/22 11:37:21;;;;;;;13.13;4.55;;;27.70;91.60;;;;;;5024082;28;20417;-61
2022/10/22 11:40:01;;;;;;;8.30;4.20;;;27.70;91.50;;;;;;5023456;28;20060;-55
2022/10/22 11:42:33;;;;;;;4.50;3.80;;;27.70;91.40;;;;;;5024121;28;20014;-54
2022/10/22 11:45:01;;;;;;;5.18;3.95;;;27.70;91.50;;;;;;5024494;28;20042;-57
2022/10/22 11:47:55;;;;;;;7.68;3.30;;;27.70;91.40;;;;;;5023188;28;20092;-57
2022/10/22 11:50:24;;;;;;;5.57;3.75;;;27.70;91.40;;;;;;5015434;28;20349;-58
2022/10/22 11:53:07;;;;;;;10.48;3.80;;;27.70;91.40;;;;;;5022812;28;20056;-57
2022/10/22 11:55:50;;;;;;;7.68;3.30;;;27.70;91.50;;;;;;5022883;28;20060;-58
2022/10/22 11:58:37;;;;;;;9.63;3.65;;;27.70;91.50;;;;;;5022751;28;20022;-59
2022/10/22 12:01:07;;;;;;;15.05;4.50;;;27.70;91.60;;;;;;5022509;28;20030;-58
2022/10/22 12:03:33;;;;;;;7.63;4.03;;;27.70;91.60;;;;;;5022356;28;20026;-61
2022/10/22 12:06:12;;;;;;;8.50;4.57;;;27.70;91.60;;;;;;5024381;28;20080;-58
2022/10/22 12:09:06;;;;;;;14.45;4.93;;;27.70;91.50;;;;;;5023939;28;20788;-56
2022/10/22 12:11:46;;;;;;;22.98;5.60;;;27.70;91.60;;;;;;5022572;28;20226;-54
2022/10/22 12:14:19;;;;;;;20.20;4.72;;;27.70;91.60;;;;;;5024229;28;20025;-56
2022/10/22 12:17:09;;;;;;;8.55;4.57;;;27.70;91.60;;;;;;5024035;28;20029;-56
2022/10/22 12:19:42;;;;;;;10.07;4.70;;;27.70;91.70;;;;;;5024179;28;20045;-55
2022/10/22 12:22:24;;;;;;;8.18;4.13;;;27.70;91.60;;;;;;5024175;28;20026;-57
2022/10/22 12:24:58;;;;;;;6.72;3.97;;;27.80;91.60;;;;;;5023809;28;20057;-55
2022/10/22 12:27:32;;;;;;;11.82;4.63;;;27.70;91.70;;;;;;5023781;28;20034;-55
2022/10/22 12:30:01;;;;;;;10.60;4.20;;;27.80;91.70;;;;;;5024199;28;20235;-52
2022/10/22 12:32:41;;;;;;;9.27;4.13;;;27.80;91.90;;;;;;5024095;28;20222;-55
2022/10/22 12:35:19;;;;;;;10.23;3.83;;;27.80;91.70;;;;;;5024141;28;20296;-56
2022/10/22 12:38:02;;;;;;;6.90;3.92;;;27.80;91.80;;;;;;5024052;28;20030;-59
2022/10/22 12:40:32;;;;;;;7.40;3.75;;;27.80;91.80;;;;;;5024444;28;20269;-56
2022/10/22 12:43:06;;;;;;;11.15;5.05;;;27.80;91.70;;;;;;5023721;28;20075;-57
2022/10/22 12:45:34;;;;;;;5.28;3.80;;;27.80;91.80;;;;;;5024122;28;20045;-58
2022/10/22 12:48:22;;;;;;;7.15;4.10;;;27.80;91.70;;;;;;5023952;28;20037;-57
2022/10/22 12:50:55;;;;;;;8.00;4.47;;;27.90;91.70;;;;;;5023584;28;20222;-55
2022/10/22 12:53:36;;;;;;;7.47;4.60;;;27.90;91.80;;;;;;5024250;28;20034;-54
2022/10/22 12:56:11;;;;;;;7.55;4.38;;;27.90;91.70;;;;;;5023737;28;20034;-58
2022/10/22 12:58:40;;;;;;;7.97;4.35;;;27.90;91.70;;;;;;5024228;28;20032;-58
2022/10/22 13:01:09;;;;;;;6.07;4.20;;;28.00;91.80;;;;;;5027232;28;20033;-62
2022/10/22 13:03:44;;;;;;;7.82;4.10;;;28.00;91.80;;;;;;5027042;28;20136;-62
2022/10/22 13:06:22;;;;;;;6.60;3.58;;;28.00;91.70;;;;;;5027262;28;20030;-61
2022/10/22 13:09:05;;;;;;;9.43;4.25;;;28.10;91.70;;;;;;5026839;28;20030;-62
2022/10/22 13:11:41;;;;;;;9.05;4.05;;;28.10;91.60;;;;;;5027017;28;20029;-54